createdAt,value
2022-10-17T00:00:18.259Z,14.82
2022-10-17T00:02:48.281Z,15.55
2022-10-17T00:05:18.212Z,15.35
2022-10-17T00:07:48.627Z,15.15
2022-10-17T00:10:18.970Z,14.45
2022-10-17T00:12:49.384Z,14.70
2022-10-17T00:15:21.555Z,14.80
2022-10-17T00:17:51.431Z,12.48
2022-10-17T00:20:21.684Z,14.25
2022-10-17T00:22:51.682Z,13.95
2022-10-17T00:25:21.648Z,12.98
2022-10-17T00:27:51.501Z,13.07
2022-10-17T00:30:21.470Z,12.88
2022-10-17T00:32:51.313Z,12.35
2022-10-17T00:35:21.311Z,11.30
2022-10-17T00:37:51.133Z,12.05
2022-10-17T00:40:21.110Z,12.23
2022-10-17T00:42:52.942Z,12.27
2022-10-17T00:45:32.292Z,10.75
2022-10-17T00:48:06.881Z,11.07
2022-10-17T00:50:38.158Z,10.18
2022-10-17T00:53:10.314Z,12.02
2022-10-17T00:55:47.228Z,11.25
2022-10-17T00:58:17.853Z,11.38
2022-10-17T01:00:50.181Z,10.40
2022-10-17T01:03:20.166Z,11.63
2022-10-17T01:05:50.070Z,10.27
2022-10-17T01:08:20.686Z,10.88
2022-10-17T01:11:16.457Z,11.32
2022-10-17T01:14:01.645Z,11.32
2022-10-17T01:17:01.434Z,11.82
2022-10-17T01:20:10.117Z,10.23
2022-10-17T01:23:07.500Z,11.82
2022-10-17T01:25:58.287Z,11.50
2022-10-17T01:29:03.198Z,11.10
2022-10-17T01:31:43.279Z,10.80
2022-10-17T01:34:33.530Z,10.88
2022-10-17T01:37:26.356Z,11.18
2022-10-17T01:40:12.371Z,11.45
2022-10-17T01:43:08.511Z,10.73
2022-10-17T01:46:07.575Z,11.75
2022-10-17T01:48:43.100Z,11.20
2022-10-17T01:51:28.694Z,11.55
2022-10-17T01:54:21.704Z,11.90
2022-10-17T01:56:57.153Z,10.82
2022-10-17T01:59:34.182Z,10.23
2022-10-17T02:02:05.101Z,10.50
2022-10-17T02:04:35.052Z,11.15
2022-10-17T02:07:15.716Z,10.80
2022-10-17T02:09:46.330Z,9.88
2022-10-17T02:12:37.133Z,10.10
2022-10-17T02:15:46.068Z,10.15
2022-10-17T02:18:48.878Z,10.45
2022-10-17T02:21:48.113Z,10.75
2022-10-17T02:24:50.418Z,9.27
2022-10-17T02:27:50.761Z,9.40
2022-10-17T02:30:50.129Z,10.13
2022-10-17T02:33:32.879Z,8.90
2022-10-17T02:36:08.593Z,8.45
2022-10-17T02:38:38.862Z,8.98
2022-10-17T02:41:12.698Z,8.95
2022-10-17T02:43:46.863Z,9.10
2022-10-17T02:46:22.798Z,9.35
2022-10-17T02:49:10.044Z,8.30
2022-10-17T02:51:47.705Z,10.15
2022-10-17T02:54:42.704Z,8.52
2022-10-17T02:57:38.731Z,9.13
2022-10-17T03:00:12.845Z,8.63
2022-10-17T03:02:46.088Z,8.75
2022-10-17T03:05:19.919Z,8.75
2022-10-17T03:07:49.891Z,8.10
2022-10-17T03:10:21.088Z,8.30
2022-10-17T03:12:50.948Z,8.70
2022-10-17T03:15:20.793Z,8.48
2022-10-17T03:17:50.914Z,9.30
2022-10-17T03:20:20.813Z,8.70
2022-10-17T03:22:50.668Z,9.63
2022-10-17T03:25:20.606Z,8.88
2022-10-17T03:27:50.600Z,9.57
2022-10-17T03:30:21.034Z,8.75
2022-10-17T03:32:50.936Z,8.93
2022-10-17T03:35:20.980Z,8.95
2022-10-17T03:37:50.792Z,9.38
2022-10-17T03:40:20.754Z,10.25
2022-10-17T03:42:50.633Z,8.85
2022-10-17T03:45:20.525Z,9.35
2022-10-17T03:47:50.389Z,9.95
2022-10-17T03:50:20.266Z,10.02
2022-10-17T03:52:51.335Z,9.30
2022-10-17T03:55:21.198Z,9.40
2022-10-17T03:57:51.055Z,9.13
2022-10-17T04:00:20.946Z,10.32
2022-10-17T04:02:50.820Z,9.77
2022-10-17T04:05:20.735Z,9.52
2022-10-17T04:07:50.860Z,9.43
2022-10-17T04:10:21.655Z,9.52
2022-10-17T04:12:51.580Z,9.82
2022-10-17T04:15:21.544Z,10.95
2022-10-17T04:17:51.798Z,9.95
2022-10-17T04:20:21.773Z,10.05
2022-10-17T04:22:51.583Z,10.50
2022-10-17T04:25:21.393Z,9.73
2022-10-17T04:27:51.253Z,9.55
2022-10-17T04:30:21.015Z,10.15
2022-10-17T04:32:50.988Z,9.95
2022-10-17T04:35:21.016Z,10.35
2022-10-17T04:37:50.896Z,8.65
2022-10-17T04:40:21.028Z,9.43
2022-10-17T04:42:50.965Z,9.60
2022-10-17T04:45:20.828Z,9.48
2022-10-17T04:47:50.709Z,10.07
2022-10-17T04:50:20.924Z,10.30
2022-10-17T04:52:50.844Z,10.30
2022-10-17T04:55:20.771Z,10.68
2022-10-17T04:57:50.583Z,9.75
2022-10-17T05:00:20.469Z,10.18
2022-10-17T05:02:50.404Z,9.80
2022-10-17T05:05:23.363Z,10.48
2022-10-17T05:07:53.206Z,11.73
2022-10-17T05:10:23.915Z,10.02
2022-10-17T05:12:53.809Z,10.93
2022-10-17T05:15:23.598Z,10.27
2022-10-17T05:17:58.153Z,11.00
2022-10-17T05:20:28.154Z,11.13
2022-10-17T05:22:58.124Z,10.10
2022-10-17T05:25:28.089Z,10.52
2022-10-17T05:27:57.868Z,10.63
2022-10-17T05:30:27.734Z,10.30
2022-10-17T05:32:58.100Z,11.52
2022-10-17T05:35:28.020Z,10.80
2022-10-17T05:37:57.910Z,11.00
2022-10-17T05:40:27.770Z,11.57
2022-10-17T05:42:57.566Z,10.88
2022-10-17T05:45:27.420Z,11.07
2022-10-17T05:47:57.367Z,10.70
2022-10-17T05:50:27.212Z,10.63
2022-10-17T05:53:00.586Z,12.25
2022-10-17T05:55:37.473Z,11.05
2022-10-17T05:58:07.317Z,10.52
2022-10-17T06:00:37.282Z,9.85
2022-10-17T06:03:07.181Z,10.52
2022-10-17T06:05:38.230Z,10.38
2022-10-17T06:08:08.169Z,11.10
2022-10-17T06:10:38.353Z,11.15
2022-10-17T06:13:08.013Z,11.00
2022-10-17T06:15:37.459Z,10.93
2022-10-17T06:18:07.334Z,10.82
2022-10-17T06:20:37.165Z,11.05
2022-10-17T06:23:07.931Z,10.88
2022-10-17T06:25:37.468Z,12.00
2022-10-17T06:28:07.210Z,11.13
2022-10-17T06:30:36.739Z,12.15
2022-10-17T06:33:07.113Z,12.23
2022-10-17T06:35:36.663Z,11.75
2022-10-17T06:38:06.628Z,11.70
2022-10-17T06:40:36.187Z,12.38
2022-10-17T06:43:05.748Z,11.02
2022-10-17T06:45:35.212Z,11.27
2022-10-17T06:48:05.009Z,11.20
2022-10-17T06:50:34.541Z,11.60
2022-10-17T06:53:04.205Z,11.57
2022-10-17T06:55:34.700Z,11.80
2022-10-17T06:58:04.288Z,10.75
2022-10-17T07:00:33.850Z,10.85
2022-10-17T07:03:03.463Z,10.57
2022-10-17T07:17:40.544Z,10.38
2022-10-17T07:20:11.086Z,11.52
2022-10-17T07:22:40.945Z,11.25
2022-10-17T07:25:11.636Z,11.73
2022-10-17T07:27:41.486Z,11.20
2022-10-17T07:30:12.074Z,11.35
2022-10-17T07:32:41.994Z,10.82
2022-10-17T07:35:12.956Z,11.20
2022-10-17T07:37:43.386Z,10.90
2022-10-17T07:40:17.807Z,11.32
2022-10-17T07:42:47.589Z,10.07
2022-10-17T07:45:17.680Z,10.07
2022-10-17T07:47:50.571Z,10.13
2022-10-17T07:50:20.442Z,10.88
2022-10-17T07:52:53.401Z,11.20
2022-10-17T07:55:23.209Z,11.10
2022-10-17T07:57:53.095Z,10.27
2022-10-17T08:00:23.059Z,11.10
2022-10-17T08:02:52.897Z,10.88
2022-10-17T08:05:25.873Z,11.63
2022-10-17T08:07:56.495Z,10.70
2022-10-17T08:10:32.717Z,11.25
2022-10-17T08:13:03.806Z,9.52
2022-10-17T08:15:33.711Z,10.30
2022-10-17T08:18:03.935Z,10.55
2022-10-17T08:20:33.422Z,11.02
2022-10-17T08:23:03.035Z,14.80
2022-10-17T08:25:32.680Z,10.40
2022-10-17T08:28:02.444Z,11.02
2022-10-17T08:30:32.329Z,9.57
2022-10-17T08:33:02.009Z,10.15
2022-10-17T08:35:32.665Z,12.63
2022-10-17T08:38:15.240Z,15.93
2022-10-17T08:40:45.564Z,13.45
2022-10-17T08:43:44.426Z,12.57
2022-10-17T08:48:51.448Z,10.70
2022-10-17T08:51:27.626Z,10.60
2022-10-17T08:54:07.170Z,11.10
2022-10-17T08:56:49.612Z,10.60
2022-10-17T08:59:29.508Z,11.00
2022-10-17T09:02:24.005Z,10.45
2022-10-17T09:05:24.028Z,10.32
2022-10-17T09:08:25.478Z,10.57
2022-10-17T09:11:37.196Z,10.85
2022-10-17T09:14:45.859Z,10.88
2022-10-17T09:17:39.491Z,10.38
2022-10-17T09:20:20.045Z,10.70
2022-10-17T09:23:04.653Z,10.57
2022-10-17T09:25:47.451Z,10.50
2022-10-17T09:28:39.790Z,10.80
2022-10-17T09:31:32.692Z,10.23
2022-10-17T09:34:05.123Z,11.02
2022-10-17T09:36:40.943Z,10.60
2022-10-17T09:39:33.626Z,10.63
2022-10-17T09:42:04.915Z,11.20
2022-10-17T09:44:37.127Z,10.45
2022-10-17T09:47:21.252Z,11.02
2022-10-17T09:49:52.054Z,9.80
2022-10-17T09:52:49.398Z,10.80
2022-10-17T09:55:50.012Z,11.73
2022-10-17T09:58:19.663Z,11.40
2022-10-17T10:00:50.696Z,10.75
2022-10-17T10:03:26.101Z,10.75
2022-10-17T10:06:19.577Z,10.13
2022-10-17T10:09:00.338Z,11.18
2022-10-17T10:11:51.513Z,10.90
2022-10-17T10:14:41.624Z,11.45
2022-10-17T10:17:39.124Z,11.55
2022-10-17T10:20:37.439Z,11.73
2022-10-17T10:23:18.926Z,11.93
2022-10-17T10:26:01.810Z,12.00
2022-10-17T10:28:35.066Z,11.95
2022-10-17T10:31:10.783Z,11.35
2022-10-17T10:33:49.462Z,12.27
2022-10-17T10:36:24.605Z,11.80
2022-10-17T10:39:02.382Z,12.25
2022-10-17T10:41:49.213Z,12.20
2022-10-17T10:44:23.340Z,12.05
2022-10-17T10:47:09.971Z,12.85
2022-10-17T10:49:41.292Z,12.32
2022-10-17T10:52:20.188Z,11.88
2022-10-17T10:54:59.951Z,11.95
2022-10-17T10:57:35.339Z,12.63
2022-10-17T11:00:23.168Z,13.52
2022-10-17T11:03:06.192Z,12.15
2022-10-17T11:06:00.085Z,12.65
2022-10-17T11:08:52.594Z,13.07
2022-10-17T11:11:35.829Z,12.65
2022-10-17T11:14:39.609Z,12.65
2022-10-17T11:17:39.322Z,14.30
2022-10-17T11:20:34.871Z,13.07
2022-10-17T11:23:35.454Z,12.70
2022-10-17T11:26:10.717Z,12.65
2022-10-17T11:28:40.281Z,13.32
2022-10-17T11:31:16.452Z,12.30
2022-10-17T11:34:09.007Z,12.63
2022-10-17T11:36:43.489Z,13.25
2022-10-17T11:39:19.082Z,13.25
2022-10-17T11:42:08.876Z,13.20
2022-10-17T11:44:44.570Z,14.25
2022-10-17T11:47:41.541Z,13.52
2022-10-17T11:53:31.945Z,14.70
2022-10-17T11:56:03.190Z,14.88
2022-10-17T11:58:47.758Z,15.48
2022-10-17T12:01:41.225Z,14.85
2022-10-17T12:04:46.280Z,14.40
2022-10-17T12:07:47.733Z,14.63
2022-10-17T12:10:47.709Z,14.90
2022-10-17T12:13:53.609Z,15.55
2022-10-17T12:16:44.937Z,14.93
2022-10-17T12:19:25.112Z,17.73
2022-10-17T12:22:07.841Z,17.70
2022-10-17T12:24:46.077Z,19.65
2022-10-17T12:27:37.147Z,19.50
2022-10-17T12:30:26.137Z,20.60
2022-10-17T12:33:16.359Z,18.88
2022-10-17T12:35:45.874Z,20.60
2022-10-17T12:38:27.974Z,18.60
2022-10-17T12:40:59.414Z,19.98
2022-10-17T12:43:44.044Z,16.40
2022-10-17T12:46:14.876Z,16.95
2022-10-17T12:49:10.942Z,17.42
2022-10-17T12:52:19.566Z,17.13
2022-10-17T12:55:19.313Z,16.52
2022-10-17T12:58:04.817Z,18.00
2022-10-17T13:01:23.078Z,16.77
2022-10-17T13:03:51.388Z,16.77
2022-10-17T13:06:32.275Z,17.73
2022-10-17T13:09:05.589Z,17.45
2022-10-17T13:11:38.364Z,16.70
2022-10-17T13:14:15.451Z,18.25
2022-10-17T13:17:01.587Z,17.27
2022-10-17T13:19:41.456Z,17.40
2022-10-17T13:22:33.589Z,17.38
2022-10-17T13:25:17.899Z,16.33
2022-10-17T13:27:48.891Z,17.45
2022-10-17T13:30:38.996Z,17.25
2022-10-17T13:33:31.632Z,17.00
2022-10-17T13:36:02.825Z,17.98
2022-10-17T13:38:36.775Z,17.60
2022-10-17T13:41:35.854Z,16.95
2022-10-17T13:44:12.871Z,17.40
2022-10-17T13:46:43.538Z,19.45
2022-10-17T13:49:28.140Z,18.23
2022-10-17T13:52:00.044Z,18.05
2022-10-17T13:54:43.739Z,18.88
2022-10-17T13:57:33.920Z,18.52
2022-10-17T14:00:13.697Z,18.13
2022-10-17T14:02:43.998Z,18.77
2022-10-17T14:05:19.309Z,19.23
2022-10-17T14:08:21.898Z,18.10
2022-10-17T14:10:50.687Z,18.45
2022-10-17T14:13:29.792Z,17.92
2022-10-17T14:16:03.690Z,19.15
2022-10-17T14:18:37.432Z,18.13
2022-10-17T14:24:31.781Z,18.95
2022-10-17T14:27:02.641Z,17.77
2022-10-17T14:29:52.885Z,18.63
2022-10-17T14:32:24.305Z,19.45
2022-10-17T14:35:17.896Z,17.80
2022-10-17T14:37:51.393Z,18.52
2022-10-17T14:40:25.099Z,18.52
2022-10-17T14:42:57.099Z,18.20
2022-10-17T14:45:31.450Z,18.52
2022-10-17T14:48:20.555Z,19.30
2022-10-17T14:51:10.716Z,18.67
2022-10-17T14:53:41.272Z,18.50
2022-10-17T14:56:36.496Z,17.20
2022-10-17T14:59:11.783Z,18.48
2022-10-17T15:01:42.061Z,18.95
2022-10-17T15:04:12.491Z,17.75
2022-10-17T15:06:42.281Z,18.10
2022-10-17T15:09:13.886Z,20.45
2022-10-17T15:11:43.400Z,18.42
2022-10-17T15:14:12.872Z,17.70
2022-10-17T15:16:43.508Z,17.45
2022-10-17T15:19:15.639Z,16.77
2022-10-17T15:21:47.281Z,18.70
2022-10-17T15:24:17.510Z,17.83
2022-10-17T15:26:47.370Z,18.00
2022-10-17T15:29:18.258Z,17.75
2022-10-17T15:31:48.066Z,17.80
2022-10-17T15:34:17.899Z,16.45
2022-10-17T15:36:53.364Z,16.38
2022-10-17T15:39:23.126Z,17.92
2022-10-17T15:41:53.024Z,17.13
2022-10-17T15:44:22.818Z,17.02
2022-10-17T15:46:53.245Z,16.10
2022-10-17T15:49:23.055Z,15.88
2022-10-17T15:51:54.425Z,16.80
2022-10-17T15:54:25.224Z,16.50
2022-10-17T15:56:57.012Z,17.38
2022-10-17T15:59:33.479Z,17.42
2022-10-17T16:02:03.558Z,16.15
2022-10-17T16:04:33.397Z,17.70
2022-10-17T16:07:03.211Z,16.70
2022-10-17T16:09:33.042Z,16.40
2022-10-17T16:12:03.936Z,15.90
2022-10-17T16:14:34.789Z,15.88
2022-10-17T16:17:05.553Z,14.82
2022-10-17T16:19:35.420Z,15.55
2022-10-17T16:22:06.087Z,15.30
2022-10-17T16:24:36.067Z,16.23
2022-10-17T16:27:05.947Z,15.77
2022-10-17T16:29:38.725Z,17.67
2022-10-17T16:32:08.696Z,15.77
2022-10-17T16:34:38.575Z,16.45
2022-10-17T16:37:08.976Z,16.08
2022-10-17T16:39:38.740Z,16.42
2022-10-17T16:42:08.711Z,16.42
2022-10-17T16:44:38.582Z,16.48
2022-10-17T16:47:08.446Z,15.50
2022-10-17T16:49:41.667Z,17.13
2022-10-17T16:52:14.662Z,15.95
2022-10-17T16:54:44.456Z,16.98
2022-10-17T16:57:14.349Z,16.80
2022-10-17T16:59:44.140Z,18.23
2022-10-17T17:02:17.523Z,16.48
2022-10-17T17:04:50.445Z,16.83
2022-10-17T17:07:21.452Z,14.85
2022-10-17T17:09:51.374Z,15.68
2022-10-17T17:12:21.180Z,16.25
2022-10-17T17:14:51.092Z,17.20
2022-10-17T17:17:36.973Z,16.35
2022-10-17T17:20:11.179Z,16.45
2022-10-17T17:22:40.642Z,16.17
2022-10-17T17:25:10.580Z,15.48
2022-10-17T17:27:40.051Z,15.13
2022-10-17T17:30:10.101Z,15.50
2022-10-17T17:32:39.644Z,14.98
2022-10-17T17:35:09.575Z,15.48
2022-10-17T17:37:39.232Z,16.65
2022-10-17T17:40:09.336Z,16.77
2022-10-17T17:42:38.874Z,16.05
2022-10-17T17:45:08.776Z,16.80
2022-10-17T17:47:38.320Z,15.60
2022-10-17T17:50:08.225Z,15.68
2022-10-17T17:52:37.782Z,14.95
2022-10-17T17:55:07.752Z,15.65
2022-10-17T17:57:37.211Z,15.70
2022-10-17T18:00:07.722Z,15.77
2022-10-17T18:02:40.725Z,15.40
2022-10-17T18:05:13.126Z,16.08
2022-10-17T18:07:42.724Z,15.48
2022-10-17T18:12:45.318Z,16.55
2022-10-17T18:15:21.683Z,16.10
2022-10-17T18:17:52.146Z,15.52
2022-10-17T18:20:21.802Z,15.88
2022-10-17T18:22:51.319Z,16.60
2022-10-17T18:25:20.856Z,15.38
2022-10-17T18:27:50.542Z,16.25
2022-10-17T18:30:21.218Z,15.48
2022-10-17T18:32:53.643Z,16.52
2022-10-17T18:35:23.638Z,16.08
2022-10-17T18:37:53.242Z,16.00
2022-10-17T18:40:22.732Z,15.60
2022-10-17T18:42:52.307Z,15.85
2022-10-17T18:45:21.955Z,15.35
2022-10-17T18:47:54.229Z,16.20
2022-10-17T18:50:25.629Z,16.80
2022-10-17T18:52:55.244Z,16.58
2022-10-17T18:55:24.808Z,17.90
2022-10-17T18:57:54.763Z,16.35
2022-10-17T19:00:24.254Z,16.52
2022-10-17T19:02:53.760Z,15.25
2022-10-17T19:05:23.373Z,16.63
2022-10-17T19:07:52.919Z,15.82
2022-10-17T19:10:22.563Z,16.08
2022-10-17T19:12:52.096Z,16.08
2022-10-17T19:15:23.819Z,14.82
2022-10-17T19:17:56.624Z,14.52
2022-10-17T19:20:26.224Z,15.93
2022-10-17T19:22:55.899Z,14.77
2022-10-17T19:25:25.425Z,15.10
2022-10-17T19:27:55.083Z,15.63
2022-10-17T19:30:24.576Z,15.07
2022-10-17T19:32:54.141Z,14.50
2022-10-17T19:35:23.643Z,15.30
2022-10-17T19:37:53.425Z,15.00
2022-10-17T19:40:22.942Z,14.63
2022-10-17T19:42:52.419Z,14.82
2022-10-17T19:45:21.916Z,14.38
2022-10-17T19:47:51.591Z,14.02
2022-10-17T19:50:21.076Z,15.65
2022-10-17T19:52:53.038Z,14.05
2022-10-17T19:55:22.562Z,14.93
2022-10-17T19:57:52.139Z,14.40
2022-10-17T20:00:21.733Z,14.38
2022-10-17T20:02:51.236Z,14.75
2022-10-17T20:05:23.571Z,14.02
2022-10-17T20:07:55.595Z,14.65
2022-10-17T20:10:25.249Z,15.18
2022-10-17T20:12:54.772Z,15.32
2022-10-17T20:15:24.427Z,14.35
2022-10-17T20:17:54.409Z,13.45
2022-10-17T20:20:24.507Z,13.60
2022-10-17T20:22:54.031Z,14.93
2022-10-17T20:25:23.861Z,13.50
2022-10-17T20:27:53.597Z,14.80
2022-10-17T20:30:23.144Z,14.32
2022-10-17T20:32:55.129Z,14.15
2022-10-17T20:35:25.441Z,13.60
2022-10-17T20:37:55.133Z,14.48
2022-10-17T20:40:39.697Z,14.18
2022-10-17T20:43:12.487Z,13.93
2022-10-17T20:45:51.153Z,14.82
2022-10-17T20:48:21.487Z,14.20
2022-10-17T20:50:51.748Z,14.68
2022-10-17T20:53:36.554Z,15.23
2022-10-17T20:56:27.212Z,15.40
2022-10-17T20:59:01.530Z,15.00
2022-10-17T21:01:33.052Z,15.63
2022-10-17T21:04:27.104Z,14.98
2022-10-17T21:06:55.986Z,15.02
2022-10-17T21:09:25.893Z,15.25
2022-10-17T21:11:57.224Z,14.55
2022-10-17T21:14:27.668Z,14.38
2022-10-17T21:16:58.929Z,14.50
2022-10-17T21:19:32.571Z,16.10
2022-10-17T21:22:02.767Z,14.70
2022-10-17T21:24:33.291Z,14.73
2022-10-17T21:27:02.848Z,13.80
2022-10-17T21:29:32.335Z,14.40
2022-10-17T21:32:01.824Z,15.05
2022-10-17T21:34:31.361Z,14.15
2022-10-17T21:37:00.911Z,13.68
2022-10-17T21:39:30.527Z,14.52
2022-10-17T21:42:00.171Z,15.07
2022-10-17T21:44:30.042Z,14.20
2022-10-17T21:46:59.558Z,14.38
2022-10-17T21:49:29.331Z,14.30
2022-10-17T21:51:59.537Z,14.00
2022-10-17T21:54:29.042Z,14.88
2022-10-17T21:57:01.457Z,14.00
2022-10-17T21:59:33.126Z,15.05
2022-10-17T22:02:02.747Z,14.95
2022-10-17T22:04:32.270Z,16.48
2022-10-17T22:07:01.761Z,15.32
2022-10-17T22:09:31.323Z,14.00
2022-10-17T22:12:00.945Z,14.20
2022-10-17T22:14:30.859Z,14.32
2022-10-17T22:17:03.104Z,14.35
2022-10-17T22:19:32.932Z,13.10
2022-10-17T22:22:02.981Z,14.52
2022-10-17T22:24:32.981Z,14.02
2022-10-17T22:27:03.013Z,14.45
2022-10-17T22:29:32.833Z,13.60
2022-10-17T22:32:02.708Z,14.10
2022-10-17T22:34:32.584Z,14.00
2022-10-17T22:37:02.407Z,13.63
2022-10-17T22:39:32.287Z,13.23
2022-10-17T22:42:02.101Z,14.45
2022-10-17T22:44:31.926Z,15.00
2022-10-17T22:47:01.731Z,14.98
2022-10-17T22:49:31.528Z,14.65
2022-10-17T22:52:01.399Z,15.13
2022-10-17T22:54:31.321Z,14.20
2022-10-17T22:57:01.167Z,14.55
2022-10-17T22:59:31.038Z,14.07
2022-10-17T23:02:00.991Z,14.48
2022-10-17T23:04:30.895Z,15.27
2022-10-17T23:07:00.773Z,14.82
2022-10-17T23:09:30.733Z,13.68
2022-10-17T23:12:00.605Z,14.07
2022-10-17T23:14:30.453Z,14.82
2022-10-17T23:17:00.465Z,15.65
2022-10-17T23:19:30.084Z,14.30
2022-10-17T23:21:59.664Z,15.38
2022-10-17T23:24:29.523Z,14.75
2022-10-17T23:26:59.504Z,14.20
2022-10-17T23:29:33.363Z,13.93
2022-10-17T23:32:03.136Z,13.32
2022-10-17T23:34:32.748Z,14.23
2022-10-17T23:37:02.306Z,14.75
2022-10-17T23:39:31.881Z,15.93
2022-10-17T23:42:01.407Z,14.52
2022-10-17T23:44:31.507Z,14.45
2022-10-17T23:47:01.126Z,14.07
2022-10-17T23:49:30.707Z,14.25
2022-10-17T23:52:00.318Z,15.07
2022-10-17T23:54:29.949Z,15.00
2022-10-17T23:56:59.528Z,14.63
2022-10-17T23:59:29.092Z,16.98
